Time;durP1;ratioP1;P1;durP2;ratioP2;P2;SDS_P1;SDS_P2;PMS_P1;PMS_P2;Temp;Humidity;BMP_temperature;BMP_pressure;BME280_temperature;BME280_humidity;BME280_pressure;Samples;Min_cycle;Max_cycle;Signal;HPM_P1;HPM_P2
2022/07/23 00:00:20;;;;;;;0.93;0.93;;;27.00;45.80;;;;;;5088360;28;20044;-60
2022/07/23 00:02:48;;;;;;;1.35;1.33;;;27.00;45.80;;;;;;5088082;28;20048;-60
2022/07/23 00:05:15;;;;;;;1.20;1.20;;;27.00;45.90;;;;;;5086749;28;20044;-60
2022/07/23 00:07:42;;;;;;;1.38;1.23;;;27.00;45.90;;;;;;5086828;28;20550;-60
2022/07/23 00:10:10;;;;;;;1.65;1.55;;;27.00;45.90;;;;;;5087925;28;20082;-60
2022/07/23 00:12:38;;;;;;;1.60;1.50;;;27.00;45.90;;;;;;5086405;28;20439;-60
2022/07/23 00:15:18;;;;;;;1.70;1.60;;;27.00;45.90;;;;;;5087232;28;20070;-60
2022/07/23 00:17:46;;;;;;;1.60;1.50;;;27.00;45.90;;;;;;5086254;28;20344;-60
2022/07/23 00:20:14;;;;;;;1.42;1.42;;;27.00;45.90;;;;;;5087390;28;20094;-61
2022/07/23 00:22:52;;;;;;;1.30;1.30;;;27.00;45.90;;;;;;5086071;28;20477;-60
2022/07/23 00:25:22;;;;;;;1.58;1.48;;;27.00;45.90;;;;;;5082424;28;20040;-60
2022/07/23 00:27:59;;;;;;;1.50;1.40;;;27.00;45.90;;;;;;5087349;28;20138;-60
2022/07/23 00:30:29;;;;;;;1.60;1.50;;;27.00;45.90;;;;;;5087409;28;20089;-61
2022/07/23 00:32:59;;;;;;;1.40;1.30;;;27.00;46.00;;;;;;5085661;28;20048;-60
2022/07/23 00:35:29;;;;;;;1.67;1.58;;;27.00;46.00;;;;;;5087406;28;20040;-60
2022/07/23 00:37:57;;;;;;;1.23;1.20;;;27.00;46.00;;;;;;5086734;28;20055;-60
2022/07/23 00:40:24;;;;;;;1.35;1.27;;;27.00;46.00;;;;;;5085619;28;20424;-60
2022/07/23 00:42:52;;;;;;;1.27;1.27;;;27.00;46.00;;;;;;5085926;28;20079;-60
2022/07/23 00:45:19;;;;;;;1.75;1.40;;;27.00;46.10;;;;;;5085772;28;20317;-60
2022/07/23 00:47:47;;;;;;;1.40;1.30;;;27.00;46.10;;;;;;5087127;28;20120;-60
2022/07/23 00:50:14;;;;;;;1.70;1.60;;;27.00;46.10;;;;;;5086801;28;20079;-60
2022/07/23 00:52:41;;;;;;;1.55;1.45;;;27.00;46.10;;;;;;5086885;28;20079;-60
2022/07/23 00:55:11;;;;;;;1.33;1.27;;;27.00;46.10;;;;;;5082074;28;20550;-60
2022/07/23 00:57:39;;;;;;;1.40;1.30;;;26.90;46.10;;;;;;5086524;28;20366;-60
2022/07/23 01:00:09;;;;;;;1.13;1.10;;;26.90;46.10;;;;;;5086913;28;20288;-60
2022/07/23 01:02:36;;;;;;;1.33;1.33;;;26.90;46.10;;;;;;5086555;28;20070;-60
2022/07/23 01:05:04;;;;;;;1.90;1.80;;;26.90;46.10;;;;;;5086978;28;20044;-60
2022/07/23 01:07:32;;;;;;;1.45;1.15;;;26.90;46.20;;;;;;5086529;28;20600;-60
2022/07/23 01:10:00;;;;;;;1.42;1.33;;;26.90;46.20;;;;;;5086821;28;20044;-60
2022/07/23 01:12:27;;;;;;;1.30;1.30;;;26.90;46.20;;;;;;5086407;28;20044;-60
2022/07/23 01:14:56;;;;;;;1.70;1.50;;;26.90;46.20;;;;;;5086935;28;20045;-60
2022/07/23 01:17:23;;;;;;;1.40;1.40;;;26.90;46.20;;;;;;5086885;28;20083;-60
2022/07/23 01:19:50;;;;;;;1.67;1.58;;;26.90;46.20;;;;;;5085616;28;20516;-60
2022/07/23 01:22:21;;;;;;;1.65;1.55;;;26.90;46.20;;;;;;5085322;28;20086;-60
2022/07/23 01:24:48;;;;;;;1.50;1.40;;;26.90;46.30;;;;;;5084938;28;20051;-60
2022/07/23 01:27:17;;;;;;;1.60;1.50;;;26.90;46.30;;;;;;5081344;28;20052;-60
2022/07/23 01:29:45;;;;;;;2.53;1.27;;;26.90;46.30;;;;;;5086168;28;20299;-60
2022/07/23 01:32:12;;;;;;;1.50;1.40;;;26.90;46.30;;;;;;5086842;28;20052;-60
2022/07/23 01:34:40;;;;;;;1.33;1.23;;;26.90;46.30;;;;;;5086392;28;20402;-60
2022/07/23 01:37:07;;;;;;;1.38;1.27;;;26.90;46.30;;;;;;5084952;28;20135;-60
2022/07/23 01:39:35;;;;;;;1.05;0.98;;;26.90;46.30;;;;;;5085965;28;20040;-60
2022/07/23 01:42:02;;;;;;;1.20;1.20;;;26.90;46.30;;;;;;5086749;28;20138;-60
2022/07/23 01:44:29;;;;;;;1.35;1.27;;;26.90;46.30;;;;;;5086434;28;20048;-60
2022/07/23 01:46:56;;;;;;;1.58;1.48;;;26.90;46.30;;;;;;5086005;28;20135;-60
2022/07/23 01:49:24;;;;;;;1.50;1.40;;;26.90;46.30;;;;;;5086052;28;20044;-61
2022/07/23 01:52:00;;;;;;;1.30;1.30;;;26.90;46.30;;;;;;5086074;28;20048;-60
2022/07/23 01:54:29;;;;;;;1.17;1.17;;;26.90;46.40;;;;;;5086642;28;20121;-60
2022/07/23 01:56:56;;;;;;;1.42;1.40;;;26.90;46.40;;;;;;5086164;28;20523;-60
2022/07/23 01:59:24;;;;;;;1.20;1.20;;;26.90;46.40;;;;;;5081258;28;20559;-60
2022/07/23 02:01:52;;;;;;;1.35;1.33;;;26.90;46.40;;;;;;5086439;28;20052;-60
2022/07/23 02:04:21;;;;;;;1.13;1.10;;;26.90;46.40;;;;;;5086074;28;20036;-60
2022/07/23 02:06:48;;;;;;;1.75;1.65;;;26.90;46.40;;;;;;5085960;28;20079;-60
2022/07/23 02:09:16;;;;;;;1.42;1.33;;;26.90;46.40;;;;;;5086145;28;20048;-60
2022/07/23 02:11:43;;;;;;;1.58;1.48;;;26.90;46.40;;;;;;5086434;28;20041;-60
2022/07/23 02:14:11;;;;;;;1.30;1.30;;;26.80;46.40;;;;;;5084316;28;20131;-60
2022/07/23 02:16:38;;;;;;;1.20;1.20;;;26.90;46.40;;;;;;5086196;28;20051;-60
2022/07/23 02:19:05;;;;;;;1.23;1.23;;;26.80;46.40;;;;;;5084151;28;20044;-60
2022/07/23 02:21:33;;;;;;;1.00;1.00;;;26.80;46.40;;;;;;5084685;28;20048;-60
2022/07/23 02:24:00;;;;;;;1.10;1.10;;;26.80;46.40;;;;;;5084867;28;20064;-60
2022/07/23 02:26:27;;;;;;;1.40;1.40;;;26.80;46.50;;;;;;5086045;28;20568;-60
2022/07/23 02:28:54;;;;;;;1.10;1.10;;;26.80;46.40;;;;;;5083971;28;20358;-61
2022/07/23 02:31:21;;;;;;;0.90;0.90;;;26.80;46.50;;;;;;5086378;28;20058;-60
2022/07/23 02:33:49;;;;;;;1.15;1.15;;;26.80;46.50;;;;;;5089661;28;20072;-60
2022/07/23 02:36:16;;;;;;;1.30;1.23;;;26.80;46.50;;;;;;5088939;28;20546;-60
2022/07/23 02:38:43;;;;;;;1.50;1.42;;;26.80;46.50;;;;;;5088798;28;20044;-60
2022/07/23 02:41:10;;;;;;;1.13;1.13;;;26.80;46.50;;;;;;5089325;28;20546;-60
2022/07/23 02:43:37;;;;;;;1.42;1.27;;;26.80;46.50;;;;;;5089160;28;20508;-60
2022/07/23 02:46:04;;;;;;;1.60;1.48;;;26.80;46.50;;;;;;5089614;28;20131;-60
2022/07/23 02:48:31;;;;;;;1.10;1.10;;;26.70;46.50;;;;;;5089393;28;20109;-60
2022/07/23 02:51:01;;;;;;;1.42;1.33;;;26.80;46.50;;;;;;5088701;28;20135;-59
2022/07/23 02:53:28;;;;;;;1.45;1.35;;;26.80;46.50;;;;;;5086667;28;20542;-60
2022/07/23 02:55:55;;;;;;;1.10;1.10;;;26.80;46.60;;;;;;5087933;28;20479;-60
2022/07/23 02:58:22;;;;;;;1.20;1.20;;;26.80;46.60;;;;;;5086388;28;20089;-60
2022/07/23 03:00:50;;;;;;;1.25;1.20;;;26.80;46.60;;;;;;5082838;28;20059;-60
2022/07/23 03:03:17;;;;;;;1.63;1.50;;;26.80;46.60;;;;;;5087576;28;20468;-60
2022/07/23 03:05:45;;;;;;;1.48;1.45;;;26.80;46.60;;;;;;5087954;28;20078;-60
2022/07/23 03:08:12;;;;;;;1.52;1.42;;;26.80;46.60;;;;;;5087626;28;20079;-60
2022/07/23 03:10:39;;;;;;;1.38;1.27;;;26.80;46.60;;;;;;5087349;28;20121;-60
2022/07/23 03:13:06;;;;;;;1.27;1.17;;;26.80;46.60;;;;;;5088031;28;20117;-60
2022/07/23 03:15:33;;;;;;;1.33;1.30;;;26.80;46.60;;;;;;5087437;28;20048;-59
2022/07/23 03:18:01;;;;;;;1.55;1.10;;;26.80;46.60;;;;;;5087652;28;20056;-59
2022/07/23 03:20:28;;;;;;;1.38;1.25;;;26.80;46.60;;;;;;5087008;28;20507;-60
2022/07/23 03:22:55;;;;;;;0.90;0.90;;;26.80;46.60;;;;;;5087653;28;20087;-59
2022/07/23 03:25:22;;;;;;;1.23;1.23;;;26.80;46.60;;;;;;5086407;28;20048;-60
2022/07/23 03:27:49;;;;;;;1.50;1.40;;;26.80;46.60;;;;;;5087081;28;20040;-60
2022/07/23 03:30:17;;;;;;;1.40;1.30;;;26.80;46.60;;;;;;5087247;28;20093;-60
2022/07/23 03:32:44;;;;;;;1.05;1.05;;;26.80;46.60;;;;;;5065020;28;20054;-60
2022/07/23 03:35:11;;;;;;;1.10;1.00;;;26.80;46.60;;;;;;5087245;28;20135;-59
2022/07/23 03:37:38;;;;;;;1.33;1.30;;;26.80;46.60;;;;;;5087194;28;20481;-60
2022/07/23 03:40:06;;;;;;;1.20;1.20;;;26.80;46.60;;;;;;5086671;28;20500;-60
2022/07/23 03:42:34;;;;;;;1.20;1.20;;;26.80;46.60;;;;;;5086004;28;20496;-59
2022/07/23 03:45:01;;;;;;;0.98;0.98;;;26.80;46.60;;;;;;5086650;28;20582;-60
2022/07/23 03:47:28;;;;;;;1.00;1.00;;;26.80;46.60;;;;;;5086872;28;20051;-60
2022/07/23 03:49:55;;;;;;;1.35;1.23;;;26.80;46.60;;;;;;5086393;28;20101;-60
2022/07/23 03:52:23;;;;;;;1.30;1.20;;;26.80;46.50;;;;;;5086887;28;20124;-60
2022/07/23 03:54:50;;;;;;;1.55;1.45;;;26.80;46.50;;;;;;5086824;28;20044;-60
2022/07/23 03:57:17;;;;;;;1.00;1.00;;;26.80;46.50;;;;;;5086690;28;20125;-59
2022/07/23 03:59:44;;;;;;;1.52;1.42;;;26.80;46.50;;;;;;5086410;28;20505;-61
2022/07/23 04:02:11;;;;;;;1.85;1.10;;;26.90;46.60;;;;;;5085175;28;20052;-59
2022/07/23 04:04:38;;;;;;;1.17;1.17;;;26.80;46.50;;;;;;5082397;28;20055;-60
2022/07/23 04:07:06;;;;;;;1.13;1.13;;;26.90;46.50;;;;;;5086809;28;20048;-60
2022/07/23 04:09:34;;;;;;;1.27;1.27;;;26.90;46.50;;;;;;5086400;28;20048;-59
2022/07/23 04:12:01;;;;;;;1.20;1.20;;;26.90;46.50;;;;;;5085405;28;20060;-60
2022/07/23 04:14:28;;;;;;;1.10;1.10;;;26.90;46.50;;;;;;5084775;28;20121;-59
2022/07/23 04:16:55;;;;;;;1.30;1.20;;;26.90;46.50;;;;;;5086352;28;20059;-59
2022/07/23 04:19:22;;;;;;;1.10;1.10;;;26.90;46.40;;;;;;5086242;28;20147;-59
2022/07/23 04:21:50;;;;;;;1.00;1.00;;;26.90;46.30;;;;;;5084448;28;20044;-60
2022/07/23 04:24:17;;;;;;;1.60;1.50;;;27.00;46.40;;;;;;5086524;28;20111;-59
2022/07/23 04:26:45;;;;;;;1.00;1.00;;;27.00;46.30;;;;;;5086065;28;20048;-60
2022/07/23 04:29:12;;;;;;;1.45;1.35;;;27.00;46.30;;;;;;5085917;28;20054;-59
2022/07/23 04:31:39;;;;;;;1.20;1.00;;;27.00;46.20;;;;;;5085784;28;20076;-60
2022/07/23 04:34:06;;;;;;;1.10;1.10;;;27.00;46.20;;;;;;5086036;28;20051;-60
2022/07/23 04:36:33;;;;;;;1.50;1.40;;;27.00;46.10;;;;;;5079779;28;20477;-59
2022/07/23 04:39:01;;;;;;;1.00;1.00;;;27.00;46.10;;;;;;5086033;28;20089;-59
2022/07/23 04:41:28;;;;;;;1.10;1.10;;;27.10;46.10;;;;;;5085722;28;20036;-59
2022/07/23 04:43:56;;;;;;;1.17;1.15;;;27.10;46.00;;;;;;5086280;28;20328;-60
2022/07/23 04:46:23;;;;;;;1.08;1.05;;;27.10;46.00;;;;;;5085825;28;20320;-59
2022/07/23 04:48:50;;;;;;;0.95;0.95;;;27.10;46.00;;;;;;5084274;28;20063;-60
2022/07/23 04:51:17;;;;;;;1.15;1.08;;;27.20;46.00;;;;;;5084577;28;20127;-59
2022/07/23 04:53:44;;;;;;;0.90;0.90;;;27.20;45.90;;;;;;5085479;28;20079;-60
2022/07/23 04:56:12;;;;;;;1.50;1.40;;;27.20;45.90;;;;;;5085826;28;20077;-60
2022/07/23 04:58:39;;;;;;;1.02;1.02;;;27.20;45.80;;;;;;5085253;28;20132;-61
2022/07/23 05:01:06;;;;;;;0.82;0.82;;;27.30;45.80;;;;;;5085977;28;20142;-60
2022/07/23 05:03:33;;;;;;;0.88;0.88;;;27.30;45.80;;;;;;5085409;28;20048;-60
2022/07/23 05:06:00;;;;;;;1.33;1.23;;;27.30;45.70;;;;;;5083651;28;20112;-60
2022/07/23 05:08:28;;;;;;;1.52;1.45;;;27.30;45.80;;;;;;5082512;28;20082;-59
2022/07/23 05:10:55;;;;;;;1.20;1.20;;;27.20;45.90;;;;;;5085933;28;20048;-61
2022/07/23 05:13:22;;;;;;;1.55;1.45;;;27.20;46.30;;;;;;5085548;28;20048;-59
2022/07/23 05:15:49;;;;;;;1.80;1.70;;;27.10;46.60;;;;;;5083919;28;20126;-59
2022/07/23 05:18:16;;;;;;;2.00;1.90;;;27.00;47.10;;;;;;5085000;28;20482;-61
2022/07/23 05:20:44;;;;;;;1.73;1.60;;;26.80;47.50;;;;;;5085644;28;20265;-61
2022/07/23 05:23:11;;;;;;;2.55;1.88;;;26.50;48.00;;;;;;5085309;28;20138;-61
2022/07/23 05:25:39;;;;;;;1.80;1.70;;;26.20;48.50;;;;;;5085351;28;20482;-61
2022/07/23 05:28:06;;;;;;;1.98;1.88;;;25.90;48.80;;;;;;5084685;28;20043;-61
2022/07/23 05:30:33;;;;;;;2.00;1.90;;;25.60;48.80;;;;;;5084187;28;20064;-61
2022/07/23 05:33:00;;;;;;;2.67;2.47;;;25.20;49.00;;;;;;5085102;28;20062;-61
2022/07/23 05:35:28;;;;;;;3.80;2.15;;;24.90;49.10;;;;;;5085150;28;20044;-61
2022/07/23 05:37:55;;;;;;;2.40;2.20;;;24.60;49.30;;;;;;5082686;28;20492;-61
2022/07/23 05:40:22;;;;;;;3.45;3.13;;;24.30;49.40;;;;;;5082833;28;20575;-61
2022/07/23 05:42:49;;;;;;;3.38;2.63;;;24.00;49.20;;;;;;5085157;28;20040;-61
2022/07/23 05:45:17;;;;;;;4.63;2.60;;;23.70;49.40;;;;;;5085015;28;20135;-60
2022/07/23 05:47:46;;;;;;;6.45;2.08;;;23.40;49.40;;;;;;5085124;28;20467;-61
2022/07/23 05:50:14;;;;;;;2.50;2.30;;;23.20;49.70;;;;;;5084763;28;20429;-61
2022/07/23 05:52:41;;;;;;;3.03;2.83;;;22.90;49.80;;;;;;5084466;28;20475;-61
2022/07/23 05:55:10;;;;;;;4.10;2.78;;;22.70;49.90;;;;;;5084867;28;20542;-60
2022/07/23 05:57:37;;;;;;;3.00;2.70;;;22.50;50.30;;;;;;5085285;28;20052;-61
2022/07/23 06:00:07;;;;;;;3.13;2.90;;;22.30;50.30;;;;;;5085084;28;20044;-61
2022/07/23 06:02:34;;;;;;;3.28;2.75;;;22.10;50.70;;;;;;5083405;28;20500;-61
2022/07/23 06:05:02;;;;;;;3.78;3.20;;;22.00;51.10;;;;;;5085752;28;20454;-61
2022/07/23 06:07:29;;;;;;;3.38;3.08;;;21.90;51.80;;;;;;5088708;28;20077;-61
2022/07/23 06:09:56;;;;;;;3.33;3.08;;;21.80;51.40;;;;;;5084901;28;20056;-61
2022/07/23 06:12:24;;;;;;;3.38;3.00;;;21.70;52.30;;;;;;5087049;28;20606;-60
2022/07/23 06:14:52;;;;;;;3.17;2.88;;;21.60;52.50;;;;;;5088817;28;20109;-62
2022/07/23 06:17:19;;;;;;;4.53;3.10;;;21.50;52.80;;;;;;5088218;28;20134;-61
2022/07/23 06:19:46;;;;;;;3.35;3.05;;;21.50;53.20;;;;;;5088965;28;20040;-61
2022/07/23 06:22:13;;;;;;;4.13;3.47;;;21.50;53.70;;;;;;5088858;28;20131;-61
2022/07/23 06:24:40;;;;;;;3.25;3.05;;;21.50;54.00;;;;;;5088958;28;20124;-61
2022/07/23 06:27:07;;;;;;;3.58;3.25;;;21.50;54.10;;;;;;5088708;28;20051;-62
2022/07/23 06:29:34;;;;;;;3.90;3.58;;;21.60;54.40;;;;;;5088036;28;20044;-60
2022/07/23 06:32:02;;;;;;;3.38;2.97;;;21.50;54.90;;;;;;5088881;28;20105;-61
2022/07/23 06:34:29;;;;;;;4.13;3.72;;;21.60;55.20;;;;;;5088182;28;20094;-61
2022/07/23 06:36:56;;;;;;;3.65;3.35;;;21.60;55.30;;;;;;5087744;28;20090;-61
2022/07/23 06:39:24;;;;;;;3.55;3.25;;;21.60;55.10;;;;;;5087768;28;20044;-61
2022/07/23 06:41:52;;;;;;;3.85;3.33;;;21.70;55.30;;;;;;5083802;28;20428;-62
2022/07/23 06:44:26;;;;;;;4.50;3.92;;;21.70;55.30;;;;;;5088046;28;20047;-61
2022/07/23 06:46:53;;;;;;;3.53;3.20;;;21.80;55.30;;;;;;5087578;28;20113;-61
2022/07/23 06:49:20;;;;;;;3.67;3.28;;;21.80;55.10;;;;;;5087992;28;20429;-61
2022/07/23 06:51:48;;;;;;;7.70;4.10;;;21.80;55.00;;;;;;5088185;28;20123;-58
2022/07/23 06:54:15;;;;;;;3.47;3.13;;;21.80;55.00;;;;;;5087920;28;20105;-61
2022/07/23 06:56:43;;;;;;;4.72;3.92;;;21.80;55.00;;;;;;5087973;28;20576;-61
2022/07/23 06:59:10;;;;;;;6.60;3.40;;;21.90;55.10;;;;;;5086537;28;20044;-60
2022/07/23 07:01:38;;;;;;;8.63;3.67;;;21.90;55.00;;;;;;5088114;28;20056;-61
2022/07/23 07:04:05;;;;;;;4.35;3.90;;;21.90;55.10;;;;;;5087505;28;20067;-61
2022/07/23 07:06:32;;;;;;;4.82;3.50;;;21.90;55.00;;;;;;5087748;28;20052;-60
2022/07/23 07:08:59;;;;;;;4.07;3.38;;;21.90;55.20;;;;;;5087747;28;20093;-61
2022/07/23 07:11:27;;;;;;;4.28;3.58;;;21.80;55.40;;;;;;5087788;28;20585;-61
2022/07/23 07:13:54;;;;;;;4.55;3.58;;;21.90;55.30;;;;;;5083360;28;20475;-61
2022/07/23 07:16:21;;;;;;;8.45;4.28;;;21.90;55.70;;;;;;5086089;28;20106;-61
2022/07/23 07:18:48;;;;;;;3.97;3.60;;;21.90;55.90;;;;;;5087058;28;20048;-60
2022/07/23 07:21:15;;;;;;;4.18;3.70;;;21.90;56.00;;;;;;5087394;28;20347;-60
2022/07/23 07:23:42;;;;;;;3.90;3.60;;;21.90;56.30;;;;;;5087496;28;20086;-60
2022/07/23 07:26:09;;;;;;;4.45;3.72;;;21.90;56.50;;;;;;5087210;28;20562;-60
2022/07/23 07:28:36;;;;;;;4.95;3.70;;;21.90;56.60;;;;;;5087180;28;20106;-60
2022/07/23 07:31:04;;;;;;;5.95;4.55;;;22.00;57.00;;;;;;5087259;28;20477;-60
2022/07/23 07:33:31;;;;;;;4.75;4.35;;;22.00;56.40;;;;;;5087412;28;20048;-60
2022/07/23 07:35:58;;;;;;;4.47;4.03;;;22.00;56.70;;;;;;5086672;28;20534;-60
2022/07/23 07:38:25;;;;;;;4.55;4.07;;;22.00;56.50;;;;;;5087080;28;20776;-60
2022/07/23 07:40:52;;;;;;;4.55;4.10;;;22.00;56.50;;;;;;5087111;28;20076;-60
2022/07/23 07:43:20;;;;;;;4.20;3.80;;;22.00;56.50;;;;;;5087326;28;20079;-61
2022/07/23 07:45:47;;;;;;;5.68;4.03;;;22.00;56.50;;;;;;5080951;28;20119;-60
2022/07/23 07:48:14;;;;;;;4.38;3.92;;;21.90;56.60;;;;;;5086899;28;20050;-60
2022/07/23 07:50:41;;;;;;;3.80;3.50;;;21.90;56.70;;;;;;5086504;28;20044;-60
2022/07/23 07:53:10;;;;;;;5.45;4.13;;;21.90;57.00;;;;;;5086785;28;20052;-60
2022/07/23 07:55:37;;;;;;;5.80;4.15;;;21.90;57.10;;;;;;5085517;28;20504;-60
2022/07/23 07:58:05;;;;;;;4.60;3.45;;;21.90;57.10;;;;;;5086847;28;20531;-60
2022/07/23 08:00:33;;;;;;;4.50;4.10;;;21.90;57.10;;;;;;5087015;28;20367;-60
2022/07/23 08:03:00;;;;;;;4.78;3.65;;;21.90;57.20;;;;;;5086954;28;20162;-60
2022/07/23 08:05:30;;;;;;;6.82;4.00;;;21.90;57.30;;;;;;5085246;28;20036;-61
2022/07/23 08:07:58;;;;;;;4.10;3.80;;;21.80;57.40;;;;;;5086425;28;20093;-60
2022/07/23 08:10:27;;;;;;;4.25;3.85;;;21.80;57.60;;;;;;5086805;28;20047;-61
2022/07/23 08:13:00;;;;;;;5.45;4.45;;;21.80;57.30;;;;;;5086793;28;20048;-61
2022/07/23 08:15:29;;;;;;;4.93;4.47;;;21.80;57.40;;;;;;5085964;28;20571;-61
2022/07/23 08:17:57;;;;;;;3.90;3.55;;;21.80;57.20;;;;;;5081677;28;20044;-60
2022/07/23 08:20:25;;;;;;;4.43;4.03;;;21.90;57.20;;;;;;5085081;28;20059;-61
2022/07/23 08:22:57;;;;;;;5.05;4.13;;;21.90;57.20;;;;;;5086369;28;20044;-60
2022/07/23 08:25:39;;;;;;;4.30;3.92;;;21.90;57.10;;;;;;5085720;28;20540;-61
2022/07/23 08:28:08;;;;;;;4.60;4.05;;;21.90;57.00;;;;;;5085471;28;20070;-61
2022/07/23 08:30:37;;;;;;;3.83;3.53;;;21.90;56.90;;;;;;5084815;28;20075;-61
2022/07/23 08:33:13;;;;;;;5.80;4.20;;;21.90;56.80;;;;;;5086703;28;20468;-61
2022/07/23 08:36:02;;;;;;;4.60;3.80;;;21.90;56.90;;;;;;5085834;28;20044;-60
2022/07/23 08:38:30;;;;;;;;;;;21.90;56.80;;;;;;5086690;28;20044;-61
2022/07/23 08:40:58;;;;;;;6.20;4.47;;;21.80;56.80;;;;;;5091899;28;19969;-60
2022/07/23 08:43:27;;;;;;;3.95;3.60;;;21.80;56.80;;;;;;5093507;28;20039;-60
2022/07/23 08:45:56;;;;;;;4.10;3.80;;;21.80;56.90;;;;;;5086406;28;20081;-60
2022/07/23 08:48:33;;;;;;;6.65;3.83;;;21.70;56.90;;;;;;5082482;28;20126;-59
2022/07/23 08:51:03;;;;;;;4.30;3.90;;;21.70;56.80;;;;;;5104491;28;20126;-59
2022/07/23 08:53:32;;;;;;;4.30;3.90;;;21.70;56.90;;;;;;5088545;28;20519;-59
2022/07/23 08:56:02;;;;;;;3.55;3.20;;;21.70;56.90;;;;;;5105869;28;20104;-59
2022/07/23 08:58:30;;;;;;;4.40;3.97;;;21.70;56.80;;;;;;5105676;28;20355;-59
2022/07/23 09:00:59;;;;;;;4.70;3.80;;;21.70;56.80;;;;;;5106130;28;20280;-59
2022/07/23 09:03:35;;;;;;;5.72;3.78;;;21.70;56.80;;;;;;5106314;28;20051;-59
2022/07/23 09:06:02;;;;;;;5.03;3.83;;;21.70;56.80;;;;;;5105912;28;20135;-59
2022/07/23 09:08:38;;;;;;;4.68;3.53;;;21.70;56.70;;;;;;5105849;28;20219;-59
2022/07/23 09:11:08;;;;;;;6.28;4.05;;;21.70;56.70;;;;;;5105467;28;20663;-59
2022/07/23 09:13:43;;;;;;;3.88;3.42;;;21.70;56.90;;;;;;5105614;28;20558;-59
2022/07/23 09:16:16;;;;;;;4.13;3.72;;;21.70;56.60;;;;;;5105882;28;20269;-59
2022/07/23 09:18:52;;;;;;;4.03;3.63;;;21.80;56.80;;;;;;5104536;28;20484;-59
2022/07/23 09:21:31;;;;;;;4.15;3.40;;;21.70;56.90;;;;;;5101376;28;20749;-59
2022/07/23 09:24:02;;;;;;;4.38;3.80;;;21.80;56.70;;;;;;5105457;28;20488;-59
2022/07/23 09:26:36;;;;;;;3.90;3.60;;;21.80;56.80;;;;;;5105733;28;20051;-59
2022/07/23 09:29:13;;;;;;;5.00;3.72;;;21.70;57.00;;;;;;5105097;28;20126;-59
2022/07/23 09:31:50;;;;;;;4.65;3.72;;;21.70;57.10;;;;;;5104745;28;20047;-59
2022/07/23 09:34:32;;;;;;;4.82;4.25;;;21.70;57.40;;;;;;5105723;28;20058;-59
2022/07/23 09:37:14;;;;;;;5.00;3.40;;;21.70;57.60;;;;;;5072796;28;20085;-59
2022/07/23 09:39:43;;;;;;;4.47;3.95;;;21.70;57.50;;;;;;5105927;28;20043;-59
2022/07/23 09:42:26;;;;;;;5.47;4.20;;;21.80;57.50;;;;;;5109862;28;20484;-58
2022/07/23 09:44:56;;;;;;;3.88;3.45;;;21.80;57.30;;;;;;5109954;28;20075;-59
2022/07/23 09:47:26;;;;;;;5.50;4.28;;;21.90;57.10;;;;;;5109095;28;20098;-59
2022/07/23 09:50:05;;;;;;;4.78;3.72;;;21.80;57.00;;;;;;5109494;28;20138;-60
2022/07/23 09:52:35;;;;;;;6.90;3.85;;;21.90;56.80;;;;;;5104707;28;20123;-59
2022/07/23 09:55:05;;;;;;;4.20;3.80;;;21.90;56.70;;;;;;5109544;28;20075;-59
2022/07/23 09:57:33;;;;;;;3.92;3.53;;;21.90;56.50;;;;;;5109504;28;20040;-59
2022/07/23 10:00:08;;;;;;;4.40;3.50;;;21.90;56.30;;;;;;5109438;28;20048;-59
2022/07/23 10:02:36;;;;;;;4.00;3.70;;;21.90;56.10;;;;;;5109302;28;20599;-59
2022/07/23 10:05:04;;;;;;;5.68;4.18;;;21.90;56.10;;;;;;5109440;28;20568;-59
2022/07/23 10:07:37;;;;;;;4.65;4.15;;;21.90;56.00;;;;;;5109695;28;20047;-59
2022/07/23 10:10:06;;;;;;;4.65;4.25;;;21.90;55.70;;;;;;5109277;28;20055;-59
2022/07/23 10:15:20;;;;;;;4.32;3.92;;;21.90;55.70;;;;;;5107953;28;20258;-59
2022/07/23 10:17:48;;;;;;;9.00;4.60;;;21.80;55.70;;;;;;5108729;28;20384;-60
2022/07/23 10:20:15;;;;;;;4.05;3.75;;;21.80;55.70;;;;;;5108563;28;20480;-59
2022/07/23 10:22:59;;;;;;;4.47;4.07;;;21.80;55.90;;;;;;5107482;28;20627;-59
2022/07/23 10:25:43;;;;;;;4.65;4.25;;;21.70;55.80;;;;;;5104617;28;20122;-59
2022/07/23 10:28:50;;;;;;;6.30;4.47;;;21.70;55.90;;;;;;5107147;28;20408;-59
2022/07/23 10:31:41;;;;;;;4.35;3.95;;;21.70;56.20;;;;;;5108902;28;20122;-59
2022/07/23 10:34:48;;;;;;;3.65;3.35;;;21.70;56.60;;;;;;5098085;28;20044;-59
2022/07/23 10:37:24;;;;;;;;;;;21.70;56.80;;;;;;5087731;28;20056;-60
2022/07/23 10:40:17;;;;;;;4.57;4.18;;;21.70;56.80;;;;;;5088097;28;19952;-59
2022/07/23 10:42:46;;;;;;;4.25;3.85;;;21.70;57.00;;;;;;5087986;28;20048;-59
2022/07/23 10:45:35;;;;;;;4.45;4.05;;;21.80;56.90;;;;;;5088729;28;20181;-59
2022/07/23 10:48:16;;;;;;;4.90;4.40;;;21.90;57.00;;;;;;5088232;28;20051;-60
2022/07/23 10:51:06;;;;;;;7.35;4.03;;;21.90;57.10;;;;;;5087712;28;20051;-60
2022/07/23 10:53:57;;;;;;;3.90;3.60;;;22.00;57.00;;;;;;5087836;28;20060;-60
2022/07/23 10:57:06;;;;;;;5.57;5.05;;;22.00;56.90;;;;;;5083607;28;20175;-60
2022/07/23 11:00:14;;;;;;;4.25;3.78;;;22.00;56.50;;;;;;5086417;28;20489;-60
2022/07/23 11:02:45;;;;;;;6.50;4.60;;;22.00;56.30;;;;;;5087797;28;20101;-60
2022/07/23 11:05:13;;;;;;;;;;;22.00;56.50;;;;;;5087356;28;20263;-60
2022/07/23 11:08:21;;;;;;;5.30;4.43;;;22.00;56.40;;;;;;5087973;28;19951;-60
2022/07/23 11:10:54;;;;;;;4.35;4.05;;;22.00;56.40;;;;;;5087190;28;20051;-60
2022/07/23 11:13:29;;;;;;;5.65;5.15;;;22.00;56.50;;;;;;5087798;28;20431;-59
2022/07/23 11:16:11;;;;;;;4.50;4.05;;;22.00;56.30;;;;;;5088096;28;20086;-59
2022/07/23 11:18:59;;;;;;;4.97;4.10;;;22.10;56.30;;;;;;5086169;28;20058;-59
2022/07/23 11:21:46;;;;;;;4.60;4.20;;;22.00;56.40;;;;;;5087707;28;20130;-59
2022/07/23 11:24:17;;;;;;;6.10;4.85;;;22.00;56.20;;;;;;5087539;28;20471;-59
2022/07/23 11:26:51;;;;;;;4.63;4.28;;;22.00;56.40;;;;;;5086553;28;20094;-59
2022/07/23 11:29:38;;;;;;;5.25;4.75;;;22.00;56.20;;;;;;5083721;28;20485;-59
2022/07/23 11:32:24;;;;;;;5.85;4.65;;;22.00;56.10;;;;;;5086448;28;20101;-60
2022/07/23 11:34:53;;;;;;;6.15;4.75;;;22.00;56.10;;;;;;5087501;28;20056;-59
2022/07/23 11:37:31;;;;;;;4.95;4.55;;;22.00;56.10;;;;;;5087449;28;20079;-59
2022/07/23 11:39:59;;;;;;;5.40;4.90;;;22.10;56.10;;;;;;5087195;28;20044;-59
2022/07/23 11:42:26;;;;;;;5.75;5.22;;;22.10;56.20;;;;;;5085696;28;20048;-59
2022/07/23 11:44:57;;;;;;;6.72;5.10;;;22.10;56.00;;;;;;5085910;28;20286;-59
2022/07/23 11:47:26;;;;;;;5.40;4.90;;;22.10;56.20;;;;;;5087210;28;20497;-59
2022/07/23 11:49:55;;;;;;;6.65;4.43;;;22.10;56.30;;;;;;5085321;28;20044;-59
2022/07/23 11:52:23;;;;;;;4.82;4.43;;;22.10;56.30;;;;;;5085964;28;20450;-59
2022/07/23 11:54:54;;;;;;;6.40;5.57;;;22.10;56.30;;;;;;5086747;28;20561;-59
2022/07/23 11:57:26;;;;;;;6.03;5.43;;;22.20;56.30;;;;;;5085723;28;20389;-59
2022/07/23 11:59:58;;;;;;;5.93;5.32;;;22.20;56.40;;;;;;5081316;28;20136;-60
2022/07/23 12:02:25;;;;;;;5.55;5.07;;;22.20;56.20;;;;;;5084842;28;20489;-59
2022/07/23 12:04:53;;;;;;;5.95;5.22;;;22.20;56.40;;;;;;5085161;28;20497;-59
2022/07/23 12:07:39;;;;;;;6.50;5.10;;;22.30;56.30;;;;;;5087064;28;20448;-59
2022/07/23 12:10:20;;;;;;;5.63;5.13;;;22.30;56.30;;;;;;5084929;28;20508;-59
2022/07/23 12:12:51;;;;;;;6.00;5.50;;;22.30;56.30;;;;;;5086539;28;20508;-61
2022/07/23 12:15:32;;;;;;;7.22;6.13;;;22.30;56.30;;;;;;5086322;28;20056;-61
2022/07/23 12:18:02;;;;;;;6.75;5.47;;;22.30;56.30;;;;;;5086142;28;20052;-59
2022/07/23 12:20:36;;;;;;;6.22;5.63;;;22.30;56.30;;;;;;5084950;28;20109;-59
2022/07/23 12:23:06;;;;;;;6.35;5.82;;;22.40;56.30;;;;;;5086069;28;20348;-59
2022/07/23 12:25:35;;;;;;;7.90;5.78;;;22.40;56.20;;;;;;5086174;28;20052;-59
2022/07/23 12:28:09;;;;;;;8.47;6.47;;;22.40;56.10;;;;;;5085010;28;20195;-59
2022/07/23 12:30:47;;;;;;;6.70;6.10;;;22.40;56.20;;;;;;5084004;28;20318;-59
2022/07/23 12:33:29;;;;;;;6.43;5.82;;;22.40;56.10;;;;;;5085836;28;20132;-61
2022/07/23 12:35:59;;;;;;;7.40;6.65;;;22.40;55.90;;;;;;5084879;28;20079;-61
2022/07/23 12:38:35;;;;;;;7.45;6.63;;;22.40;55.90;;;;;;5086105;28;20075;-59
2022/07/23 12:41:04;;;;;;;6.68;6.00;;;22.40;55.80;;;;;;5085769;28;20436;-59
2022/07/23 12:43:35;;;;;;;7.60;6.90;;;22.40;55.90;;;;;;5085862;28;20120;-59
2022/07/23 12:46:08;;;;;;;7.75;6.22;;;22.40;56.10;;;;;;5086160;28;20146;-59
2022/07/23 12:48:50;;;;;;;7.45;6.75;;;22.40;56.10;;;;;;5085524;28;20047;-59
2022/07/23 12:51:28;;;;;;;7.83;7.03;;;22.30;56.30;;;;;;5085375;28;20135;-59
2022/07/23 12:54:08;;;;;;;7.38;6.68;;;22.30;56.20;;;;;;5086005;28;20319;-59
2022/07/23 12:56:43;;;;;;;8.60;7.80;;;22.30;56.20;;;;;;5085688;28;20051;-59
2022/07/23 12:59:16;;;;;;;9.25;8.25;;;22.30;56.10;;;;;;5085441;28;20559;-59
2022/07/23 13:01:53;;;;;;;8.75;7.85;;;22.30;56.00;;;;;;5085997;28;20043;-59
2022/07/23 13:04:22;;;;;;;9.65;8.68;;;22.30;55.80;;;;;;5081818;28;20044;-59
2022/07/23 13:06:52;;;;;;;9.30;8.02;;;22.30;55.70;;;;;;5083976;28;20052;-59